Barrett, Minnesota
Current Conditions -  °F | °C
As of 6:56 PM on Tuesday 21 Oct 2014 (Local Time) from KY63 Reporting Station
Clear Clear  
Wind Chill: 56°   Ceiling: Unl
Heat Index: 56°   Visibility: 10mi
Dew Point: 41°   Wind: 16mph
Humidity: 56%   Direction: 130°SE
Pressure: 29.99"   Gusts: 22mph
Location:  45.91°N, 95.89°W
Report Text: KY63 212356Z AUTO 13014G19KT 10SM CLR 14/05 A2999 RMK AO2 T01360050 10170 20136
Loading
Personal Weather Stations






























Interactive Weather Map
Tropical Storm Tracking
New forecast layout! Learn more

10-Day Weather Forecast

Advertisements
Track Severe Weather on mobile